Time;durP1;ratioP1;P1;durP2;ratioP2;P2;SDS_P1;SDS_P2;PMS_P1;PMS_P2;Temp;Humidity;BMP_temperature;BMP_pressure;BME280_temperature;BME280_humidity;BME280_pressure;Samples;Min_cycle;Max_cycle;Signal;HPM_P1;HPM_P2
2022/01/17 00:03:26;;;;;;;29.63;11.90;;;;;;;8.36;nan;102801.69;4717145;30;20553;-91
2022/01/17 00:09:49;;;;;;;;;;;;;;;;;;;;;
2022/01/17 00:12:47;;;;;;;27.30;12.37;;;;;;;8.35;nan;102816.31;4701681;30;20468;-92
2022/01/17 00:15:57;;;;;;;18.17;10.67;;;;;;;8.29;nan;102813.06;4701815;30;21000;-91
2022/01/17 00:22:59;;;;;;;21.90;10.80;;;;;;;8.35;nan;102821.75;4770973;30;20481;-90
2022/01/17 00:26:46;;;;;;;19.03;7.83;;;;;;;8.09;nan;102805.69;4760773;30;20467;-91
2022/01/17 00:29:49;;;;;;;13.83;6.40;;;;;;;7.99;nan;102826.50;4745264;30;20454;-91
2022/01/17 00:32:45;;;;;;;17.80;5.80;;;;;;;7.93;nan;102824.28;4719605;30;20457;-91
2022/01/17 00:35:47;;;;;;;8.47;5.10;;;;;;;7.81;nan;102807.09;4721895;30;20442;-90
2022/01/17 00:38:51;;;;;;;4.67;3.23;;;;;;;7.86;nan;102814.91;4735747;30;20453;-91
2022/01/17 00:41:42;;;;;;;5.20;3.43;;;;;;;7.92;nan;102825.28;4711876;30;20995;-90
2022/01/17 00:44:54;;;;;;;5.23;3.30;;;;;;;7.97;nan;102817.59;4712202;30;20497;-90
2022/01/17 00:48:00;;;;;;;11.17;6.50;;;;;;;7.89;nan;102809.19;4715173;30;20497;-90
2022/01/17 00:50:52;;;;;;;15.70;8.50;;;;;;;7.87;nan;102797.59;4716778;30;20552;-91
2022/01/17 00:54:25;;;;;;;15.77;7.83;;;;;;;8.04;nan;102818.84;4731219;30;20459;-91
2022/01/17 00:57:15;;;;;;;12.03;6.30;;;;;;;7.99;nan;102815.63;4766260;29;20459;-92
2022/01/17 01:00:04;;;;;;;8.23;5.50;;;;;;;7.87;nan;102790.28;4773851;30;20474;-91
2022/01/17 01:02:59;;;;;;;13.90;6.60;;;;;;;7.93;nan;102800.66;4784512;29;20935;-91
2022/01/17 01:05:31;;;;;;;18.10;7.40;;;;;;;7.97;nan;102812.16;4766787;29;20474;-90
2022/01/17 01:08:01;;;;;;;21.07;8.90;;;;;;;7.93;nan;102799.78;4819671;29;20487;-91
2022/01/17 01:11:08;;;;;;;20.23;10.00;;;;;;;7.95;nan;102795.94;4827955;29;20460;-90
2022/01/17 01:13:51;;;;;;;24.33;12.17;;;;;;;7.74;nan;102767.75;4843489;29;20467;-88
2022/01/17 01:29:32;;;;;;;6.30;3.40;;;;;;;7.53;nan;102759.50;4816218;29;20469;-89
2022/01/17 01:32:07;;;;;;;4.23;2.90;;;;;;;7.57;nan;102780.03;4795201;29;20491;-91
2022/01/17 01:34:41;;;;;;;7.43;3.00;;;;;;;7.53;nan;102767.66;4809421;29;20475;-90
2022/01/17 01:37:17;;;;;;;6.00;3.13;;;;;;;7.47;nan;102757.28;4828610;29;20463;-90
2022/01/17 01:39:48;;;;;;;4.33;2.80;;;;;;;7.55;nan;102773.84;4828008;29;20460;-92
2022/01/17 01:42:19;;;;;;;5.80;3.13;;;;;;;7.51;nan;102761.47;4814368;29;20471;-91
2022/01/17 01:45:08;;;;;;;9.13;5.57;;;;;;;7.65;nan;102773.09;4828670;29;20489;-91
2022/01/17 01:48:36;;;;;;;22.00;9.30;;;;;;;7.70;nan;102771.72;4831767;29;20979;-91
2022/01/17 01:51:20;;;;;;;20.77;11.13;;;;;;;7.62;nan;102761.47;4832325;29;20496;-90
2022/01/17 01:53:49;;;;;;;19.30;9.73;;;;;;;7.63;nan;102755.03;4842838;29;20470;-92
2022/01/17 01:56:18;;;;;;;18.37;8.10;;;;;;;7.57;nan;102750.09;4814136;29;20463;-92
2022/01/17 01:58:48;;;;;;;17.10;8.30;;;;;;;7.53;nan;102737.72;4828291;29;20461;-90
2022/01/17 02:02:13;;;;;;;18.23;9.43;;;;;;;7.55;nan;102746.63;4835944;29;20559;-91
2022/01/17 02:05:09;;;;;;;14.77;7.97;;;;;;;7.45;nan;102729.34;4850790;29;20508;-90
2022/01/17 02:08:30;;;;;;;13.10;7.90;;;;;;;7.52;nan;102744.16;4845838;29;20531;-90
2022/01/17 02:11:35;;;;;;;17.57;8.17;;;;;;;7.45;nan;102739.34;4867896;29;20470;-91
2022/01/17 02:14:23;;;;;;;13.80;5.23;;;;;;;7.42;nan;102745.03;4851063;29;20470;-91
2022/01/17 02:17:34;;;;;;;8.37;5.00;;;;;;;7.43;nan;102744.91;4852777;29;20545;-90
2022/01/17 02:20:58;;;;;;;6.20;3.47;;;;;;;7.34;nan;102748.38;4855118;29;20455;-91
2022/01/17 02:28:08;;;;;;;8.83;4.43;;;;;;;7.43;nan;102742.19;4819345;29;20458;-91
2022/01/17 02:30:51;;;;;;;11.13;6.90;;;;;;;7.37;nan;102737.25;4806618;29;20480;-92
2022/01/17 02:33:36;;;;;;;12.63;7.00;;;;;;;7.37;nan;102731.81;4809751;29;20468;-91
2022/01/17 02:36:11;;;;;;;12.83;6.33;;;;;;;7.30;nan;102717.00;4793132;29;20935;-91
2022/01/17 02:39:16;;;;;;;20.70;7.50;;;;;;;7.24;nan;102720.19;4795182;29;20454;-91
2022/01/17 02:41:49;;;;;;;14.97;7.50;;;;;;;7.25;nan;102735.53;4808911;29;20472;-91
2022/01/17 02:44:44;;;;;;;12.67;6.57;;;;;;;7.28;nan;102736.16;4777887;29;20486;-90
2022/01/17 02:47:15;;;;;;;9.57;6.33;;;;;;;7.31;nan;102743.19;4793956;29;20468;-91
2022/01/17 02:49:43;;;;;;;19.53;7.47;;;;;;;7.31;nan;102737.75;4795756;29;20505;-91
2022/01/17 02:52:11;;;;;;;13.07;6.80;;;;;;;7.26;nan;102720.94;4810629;29;20460;-91
2022/01/17 02:54:42;;;;;;;15.60;7.23;;;;;;;7.27;nan;102728.97;4832698;29;20463;-90
2022/01/17 02:58:32;;;;;;;14.17;6.93;;;;;;;7.29;nan;102739.75;4780627;29;20450;-90
2022/01/17 03:05:16;;;;;;;15.60;7.93;;;;;;;7.09;nan;102735.03;4769131;30;20487;-91
2022/01/17 03:07:47;;;;;;;17.33;7.40;;;;;;;7.15;nan;102731.78;4768325;30;20461;-90
2022/01/17 03:10:39;;;;;;;16.17;7.93;;;;;;;7.14;nan;102732.78;4739991;30;20864;-90
2022/01/17 03:13:31;;;;;;;12.70;6.87;;;;;;;7.03;nan;102727.34;4701801;30;20899;-91
2022/01/17 03:16:17;;;;;;;13.63;5.90;;;;;;;7.05;nan;102725.38;4715667;30;20823;-92
2022/01/17 03:19:24;;;;;;;16.23;6.57;;;;;;;6.89;nan;102720.28;4723901;30;20824;-91
2022/01/17 03:22:20;;;;;;;18.87;8.20;;;;;;;6.84;nan;102711.63;4720557;30;20489;-90
2022/01/17 03:25:18;;;;;;;11.47;7.13;;;;;;;6.84;nan;102711.63;4721983;30;20497;-90
2022/01/17 03:27:57;;;;;;;11.93;5.80;;;;;;;6.65;nan;102695.91;4719433;30;20466;-90
2022/01/17 03:30:46;;;;;;;13.43;4.73;;;;;;;6.63;nan;102689.72;4732968;30;20466;-89
2022/01/17 03:33:34;;;;;;;9.17;4.27;;;;;;;6.76;nan;102717.66;4734758;30;20582;-90
2022/01/17 03:40:08;;;;;;;7.77;3.70;;;;;;;6.71;nan;102706.31;4702123;30;20481;-90
2022/01/17 03:42:59;;;;;;;6.90;3.67;;;;;;;6.70;nan;102692.84;4725658;30;20472;-90
2022/01/17 03:45:27;;;;;;;7.30;2.70;;;;;;;6.71;nan;102689.13;4752129;30;20492;-91
2022/01/17 03:47:55;;;;;;;4.70;3.10;;;;;;;6.75;nan;102667.00;4725078;30;20453;-89
2022/01/17 03:50:24;;;;;;;4.83;3.10;;;;;;;6.93;nan;102695.44;4745991;29;20457;-90
2022/01/17 03:52:56;;;;;;;5.17;3.77;;;;;;;6.89;nan;102680.41;4763542;29;20510;-89
2022/01/17 03:55:28;;;;;;;4.87;3.10;;;;;;;6.87;nan;102678.78;4778081;29;20547;-90
2022/01/17 03:57:57;;;;;;;3.57;2.77;;;;;;;6.84;nan;102682.59;4778337;29;20467;-90
2022/01/17 04:00:26;;;;;;;4.27;2.57;;;;;;;6.77;nan;102670.47;4762947;29;20797;-90
2022/01/17 04:02:54;;;;;;;4.63;3.10;;;;;;;6.79;nan;102665.78;4778022;29;20482;-91
2022/01/17 04:05:22;;;;;;;5.57;2.70;;;;;;;6.80;nan;102666.66;4776240;29;20868;-89
2022/01/17 04:07:49;;;;;;;7.73;3.13;;;;;;;6.87;nan;102668.78;4763122;29;21016;-89
2022/01/17 04:10:17;;;;;;;8.10;3.23;;;;;;;6.95;nan;102676.28;4763148;29;20526;-91
2022/01/17 04:12:46;;;;;;;11.63;4.40;;;;;;;6.92;nan;102666.56;4782746;29;20510;-90
2022/01/17 04:15:14;;;;;;;9.90;5.00;;;;;;;6.88;nan;102654.19;4829843;29;20457;-91
2022/01/17 04:17:43;;;;;;;10.20;6.00;;;;;;;6.84;nan;102649.13;4851003;29;20811;-90
2022/01/17 04:20:25;;;;;;;15.33;6.73;;;;;;;6.75;nan;102639.84;4851376;29;20461;-90
2022/01/17 04:22:56;;;;;;;11.57;6.83;;;;;;;6.84;nan;102668.16;4867922;29;20953;-91
2022/01/17 04:25:38;;;;;;;11.40;6.63;;;;;;;6.69;nan;102653.94;4836218;29;20486;-89
2022/01/17 04:28:25;;;;;;;13.80;7.57;;;;;;;6.75;nan;102663.44;4824503;29;20444;-89
2022/01/17 04:30:56;;;;;;;12.87;6.33;;;;;;;6.59;nan;102647.50;4817593;29;20521;-90
2022/01/17 04:33:46;;;;;;;19.50;8.40;;;;;;;6.63;nan;102651.69;4847230;29;20459;-90
2022/01/17 04:36:14;;;;;;;20.47;10.43;;;;;;;6.65;nan;102662.44;4848492;29;20465;-89
2022/01/17 04:38:46;;;;;;;19.77;9.70;;;;;;;6.72;nan;102680.88;4847961;29;20468;-93
2022/01/17 04:41:36;;;;;;;21.20;10.20;;;;;;;6.62;nan;102660.84;4793230;29;21003;-90
2022/01/17 04:47:08;;;;;;;18.50;9.00;;;;;;;6.75;nan;102682.44;4728744;30;20486;-91
2022/01/17 04:49:43;;;;;;;20.50;8.93;;;;;;;6.70;nan;102681.97;4739414;30;20464;-90
2022/01/17 04:52:29;;;;;;;14.10;7.80;;;;;;;6.70;nan;102684.69;4729302;30;20443;-90
2022/01/17 04:55:25;;;;;;;18.13;8.53;;;;;;;6.64;nan;102694.19;4728424;30;20487;-89
2022/01/17 04:58:13;;;;;;;15.90;8.00;;;;;;;6.63;nan;102681.59;4717417;30;20464;-90
2022/01/17 05:00:55;;;;;;;14.10;7.57;;;;;;;6.60;nan;102689.97;4725411;30;20468;-90
2022/01/17 05:04:02;;;;;;;11.87;6.57;;;;;;;6.49;nan;102651.94;4753094;30;20475;-90
2022/01/17 05:06:52;;;;;;;13.70;6.10;;;;;;;6.65;nan;102693.19;4740770;30;20848;-91
2022/01/17 05:09:43;;;;;;;6.80;5.13;;;;;;;6.56;nan;102674.88;4728541;30;20452;-91
2022/01/17 05:12:30;;;;;;;7.33;4.77;;;;;;;6.56;nan;102674.88;4722054;30;20470;-89
2022/01/17 05:20:41;;;;;;;12.70;5.40;;;;;;;6.44;nan;102687.59;4806692;29;20450;-91
2022/01/17 05:23:30;;;;;;;12.20;5.67;;;;;;;6.39;nan;102697.06;4776848;29;20511;-90
2022/01/17 05:26:12;;;;;;;8.27;4.57;;;;;;;6.40;nan;102702.38;4848067;29;20463;-90
2022/01/17 05:28:41;;;;;;;9.77;5.10;;;;;;;6.41;nan;102705.97;4838797;29;20471;-90
2022/01/17 05:31:31;;;;;;;9.17;5.33;;;;;;;6.48;nan;102727.13;4816955;29;20459;-90
2022/01/17 05:34:08;;;;;;;10.50;6.63;;;;;;;6.45;nan;102721.03;4864684;29;20470;-91
2022/01/17 05:36:38;;;;;;;18.37;6.40;;;;;;;6.30;nan;102711.38;4832890;29;20454;-91
2022/01/17 05:39:09;;;;;;;14.20;6.37;;;;;;;6.16;nan;102735.00;4840119;29;20473;-91
2022/01/17 05:41:37;;;;;;;10.87;6.13;;;;;;;5.95;nan;102720.34;4834404;29;20457;-91
2022/01/17 05:44:11;;;;;;;13.33;6.30;;;;;;;5.90;nan;102719.81;4850103;29;20493;-90
2022/01/17 05:46:40;;;;;;;12.30;6.77;;;;;;;5.97;nan;102731.94;4849481;29;20458;-90
2022/01/17 05:49:08;;;;;;;11.07;5.60;;;;;;;5.89;nan;102728.94;4845366;29;20473;-90
2022/01/17 05:51:36;;;;;;;9.77;5.93;;;;;;;6.04;nan;102732.34;4830880;29;20455;-90
2022/01/17 05:54:04;;;;;;;11.03;5.53;;;;;;;6.16;nan;102748.56;4845870;29;20805;-89
2022/01/17 05:56:32;;;;;;;8.07;4.93;;;;;;;6.15;nan;102748.72;4843614;29;20457;-89
2022/01/17 05:59:03;;;;;;;10.23;5.57;;;;;;;6.26;nan;102764.16;4833436;29;20459;-90
2022/01/17 06:01:31;;;;;;;12.23;6.00;;;;;;;6.16;nan;102743.13;4863644;29;20457;-90
2022/01/17 06:03:59;;;;;;;9.33;4.90;;;;;;;6.33;nan;102770.88;4832889;29;20489;-90
2022/01/17 06:06:30;;;;;;;9.33;4.73;;;;;;;6.17;nan;102750.28;4830415;29;20475;-90
2022/01/17 06:13:06;;;;;;;8.07;4.80;;;;;;;6.09;nan;102758.16;4862170;29;20435;-91
2022/01/17 06:15:38;;;;;;;14.43;5.60;;;;;;;5.98;nan;102749.94;4820292;29;20469;-91
2022/01/17 06:18:06;;;;;;;13.00;6.30;;;;;;;6.02;nan;102759.59;4830816;29;20491;-91
2022/01/17 06:20:41;;;;;;;15.30;8.23;;;;;;;6.09;nan;102779.88;4830852;29;20459;-89
2022/01/17 06:23:10;;;;;;;12.10;6.83;;;;;;;5.83;nan;102761.91;4846135;29;20464;-90
2022/01/17 06:25:42;;;;;;;14.27;7.10;;;;;;;5.68;nan;102754.91;4831286;29;20495;-91
2022/01/17 06:28:11;;;;;;;9.63;5.47;;;;;;;5.59;nan;102775.41;4823722;29;20831;-91
2022/01/17 06:30:50;;;;;;;12.03;5.53;;;;;;;5.71;nan;102798.09;4833990;29;20475;-91
2022/01/17 06:33:33;;;;;;;8.47;5.00;;;;;;;5.71;nan;102789.97;4834156;29;20466;-91
2022/01/17 06:36:04;;;;;;;14.80;5.97;;;;;;;5.70;nan;102777.38;4844509;29;20495;-91
2022/01/17 06:42:46;;;;;;;12.13;5.07;;;;;;;5.64;nan;102756.97;4780652;29;20947;-88
2022/01/17 06:45:21;;;;;;;11.13;5.80;;;;;;;5.74;nan;102757.19;4822281;29;20489;-88
2022/01/17 06:51:49;;;;;;;20.40;7.53;;;;;;;5.79;nan;102738.69;4841635;29;20430;-91
2022/01/17 06:58:14;;;;;;;12.57;5.90;;;;;;;5.88;nan;102770.59;4841500;29;20445;-92
2022/01/17 07:29:33;;;;;;;14.50;7.83;;;;;;;5.84;nan;102817.91;4788379;29;20508;-93
2022/01/17 07:32:07;;;;;;;11.70;8.30;;;;;;;5.79;nan;102807.38;4782752;29;20579;-92
2022/01/17 07:34:35;;;;;;;18.60;8.37;;;;;;;5.71;nan;102800.81;4754515;30;20447;-90
2022/01/17 07:37:55;;;;;;;28.93;11.37;;;;;;;5.64;nan;102821.22;4766089;29;20495;-91
2022/01/17 07:40:24;;;;;;;23.00;9.20;;;;;;;5.40;nan;102819.28;4832589;29;20464;-90
2022/01/17 07:42:53;;;;;;;18.07;9.47;;;;;;;5.30;nan;102817.34;4811280;29;20472;-90
2022/01/17 07:45:22;;;;;;;22.10;8.13;;;;;;;5.31;nan;102817.22;4808086;29;20896;-89
2022/01/17 07:48:12;;;;;;;23.03;8.50;;;;;;;5.38;nan;102821.25;4823148;29;20468;-89
2022/01/17 07:50:43;;;;;;;19.10;8.70;;;;;;;5.43;nan;102816.34;4837755;29;20466;-89
2022/01/17 07:53:13;;;;;;;23.83;9.80;;;;;;;5.48;nan;102824.16;4811155;29;20468;-90
2022/01/17 07:59:17;;;;;;;45.20;11.47;;;;;;;5.64;nan;102854.63;4841429;29;20474;-91
2022/01/17 08:01:56;;;;;;;25.33;10.37;;;;;;;5.58;nan;102837.94;4823799;29;20950;-92
2022/01/17 08:04:25;;;;;;;28.53;10.03;;;;;;;5.67;nan;102862.53;4843384;29;20500;-92
2022/01/17 08:06:55;;;;;;;29.50;11.50;;;;;;;5.79;nan;102877.06;4832296;29;20464;-91
2022/01/17 08:20:45;;;;;;;41.87;11.67;;;;;;;5.95;nan;102850.63;4872672;29;20844;-90
2022/01/17 08:23:13;;;;;;;28.83;13.13;;;;;;;5.91;nan;102840.09;4819132;29;20457;-87
2022/01/17 08:26:03;;;;;;;30.23;10.97;;;;;;;5.93;nan;102851.69;4796293;29;20498;-94
2022/01/17 08:28:37;;;;;;;28.20;11.90;;;;;;;5.94;nan;102845.28;4781475;29;20467;-86
2022/01/17 08:31:06;;;;;;;22.90;11.90;;;;;;;6.09;nan;102861.31;4823894;29;20462;-86
2022/01/17 08:33:48;;;;;;;32.90;13.90;;;;;;;6.08;nan;102845.13;4824686;29;20456;-91
2022/01/17 08:36:21;;;;;;;39.83;14.70;;;;;;;6.17;nan;102852.59;4792674;29;20472;-92
2022/01/17 08:38:56;;;;;;;25.63;11.30;;;;;;;6.18;nan;102847.03;4792386;29;20865;-88
2022/01/17 08:41:26;;;;;;;33.50;11.53;;;;;;;6.33;nan;102863.22;4809761;29;20460;-91
2022/01/17 08:44:31;;;;;;;21.67;9.57;;;;;;;6.35;nan;102863.97;4784027;29;20471;-93
2022/01/17 08:47:01;;;;;;;25.03;10.00;;;;;;;6.33;nan;102860.50;4816158;29;20457;-92
2022/01/17 08:49:38;;;;;;;14.30;8.87;;;;;;;6.41;nan;102877.94;4831397;29;20460;-92
2022/01/17 08:52:10;;;;;;;27.10;9.87;;;;;;;6.48;nan;102878.34;4860691;29;20945;-91
2022/01/17 14:39:47;;;;;;;4.87;2.00;;;;;;;17.58;nan;102599.69;4841327;29;20461;-90
2022/01/17 14:42:29;;;;;;;7.00;2.20;;;;;;;17.55;nan;102600.09;4811963;29;20461;-91
2022/01/17 14:44:59;;;;;;;17.93;2.50;;;;;;;17.47;nan;102601.06;4818539;29;21011;-89
2022/01/17 14:47:41;;;;;;;3.37;2.07;;;;;;;17.39;nan;102603.06;4781051;29;20522;-91
2022/01/17 14:50:11;;;;;;;4.70;2.10;;;;;;;17.27;nan;102608.25;4824805;29;20438;-92
2022/01/17 14:53:03;;;;;;;3.63;2.07;;;;;;;17.14;nan;102608.91;4792695;29;20469;-91
2022/01/17 15:01:09;;;;;;;4.77;2.23;;;;;;;16.67;nan;102628.63;4817208;29;20457;-91
2022/01/17 15:03:59;;;;;;;3.90;2.23;;;;;;;16.60;nan;102605.53;4807803;29;20449;-91
2022/01/17 15:06:30;;;;;;;5.87;2.33;;;;;;;16.54;nan;102601.63;4820082;29;20497;-90
2022/01/17 15:08:58;;;;;;;8.33;3.70;;;;;;;16.55;nan;102599.69;4800273;29;20831;-91
2022/01/17 15:11:26;;;;;;;9.30;4.23;;;;;;;16.46;nan;102603.59;4809085;29;20465;-89
2022/01/17 15:13:55;;;;;;;8.53;3.83;;;;;;;16.39;nan;102620.03;4804245;29;20480;-91
2022/01/17 15:16:25;;;;;;;7.33;3.00;;;;;;;16.30;nan;102610.13;4811545;29;20457;-91
2022/01/17 15:18:57;;;;;;;5.57;2.40;;;;;;;16.22;nan;102607.44;4764927;29;20463;-91
2022/01/17 15:21:26;;;;;;;5.93;2.50;;;;;;;16.29;nan;102610.31;4773130;30;20463;-90
2022/01/17 15:23:54;;;;;;;8.33;3.27;;;;;;;16.41;nan;102601.41;4761220;30;20841;-87
2022/01/17 15:26:22;;;;;;;4.20;2.53;;;;;;;16.55;nan;102597.81;4755732;30;20498;-88
2022/01/17 15:28:50;;;;;;;7.90;2.30;;;;;;;16.69;nan;102603.59;4770391;30;20504;-87
2022/01/17 15:31:21;;;;;;;4.90;2.90;;;;;;;16.81;nan;102605.69;4770503;30;20494;-88
2022/01/17 15:33:52;;;;;;;8.93;2.77;;;;;;;16.84;nan;102596.16;4713747;30;20467;-88
2022/01/17 15:36:21;;;;;;;5.80;2.10;;;;;;;16.97;nan;102596.34;4713297;30;20534;-90
2022/01/17 15:38:51;;;;;;;4.70;2.53;;;;;;;16.97;nan;102585.31;4768176;30;20867;-88
2022/01/17 15:41:21;;;;;;;3.40;1.93;;;;;;;17.13;nan;102595.28;4780170;30;20467;-88
2022/01/17 15:43:55;;;;;;;4.33;1.83;;;;;;;17.13;nan;102585.09;4774611;30;21029;-88
2022/01/17 15:46:25;;;;;;;11.77;2.80;;;;;;;17.28;nan;102590.63;4760640;29;20476;-89
2022/01/17 15:48:54;;;;;;;4.47;2.50;;;;;;;17.37;nan;102591.34;4760705;30;20515;-86
2022/01/17 15:51:21;;;;;;;9.03;2.60;;;;;;;17.42;nan;102586.09;4788872;29;20460;-87
2022/01/17 15:53:49;;;;;;;5.43;2.20;;;;;;;17.48;nan;102588.97;4832692;29;20459;-87
2022/01/17 15:56:18;;;;;;;3.73;2.20;;;;;;;17.47;nan;102589.16;4863752;29;20468;-87
2022/01/17 15:58:47;;;;;;;7.30;3.47;;;;;;;17.47;nan;102589.16;4832546;29;20464;-86
2022/01/17 16:01:15;;;;;;;5.77;2.00;;;;;;;17.47;nan;102589.16;4831883;29;20570;-88
2022/01/17 16:03:44;;;;;;;8.13;2.20;;;;;;;17.39;nan;102592.88;4814704;29;20455;-87
2022/01/17 16:06:12;;;;;;;8.70;2.60;;;;;;;17.36;nan;102596.03;4845711;29;20496;-86
2022/01/17 16:08:40;;;;;;;6.70;2.80;;;;;;;17.18;nan;102582.63;4847279;29;20959;-87
2022/01/17 16:11:10;;;;;;;6.83;2.70;;;;;;;17.18;nan;102599.19;4831441;29;20990;-87
2022/01/17 16:13:37;;;;;;;7.53;3.03;;;;;;;17.08;nan;102604.19;4830768;29;20457;-87
2022/01/17 16:16:07;;;;;;;7.13;2.37;;;;;;;16.98;nan;102600.81;4846431;29;20884;-87
2022/01/17 16:18:36;;;;;;;4.37;2.13;;;;;;;16.89;nan;102599.22;4846499;29;20455;-87
2022/01/17 16:21:05;;;;;;;9.97;4.00;;;;;;;16.85;nan;102601.50;4828869;29;20452;-88
2022/01/17 16:23:39;;;;;;;5.50;2.63;;;;;;;16.75;nan;102584.34;4828712;29;20460;-87
2022/01/17 16:26:08;;;;;;;8.70;2.67;;;;;;;16.75;nan;102586.25;4842563;29;20486;-86
2022/01/17 16:28:35;;;;;;;6.97;3.00;;;;;;;16.67;nan;102573.41;4846367;29;20468;-87
2022/01/17 16:31:04;;;;;;;46.63;5.90;;;;;;;16.69;nan;102589.78;4827603;29;20842;-90
2022/01/17 16:33:37;;;;;;;26.20;11.53;;;;;;;16.61;nan;102587.06;4814528;29;20947;-87
2022/01/17 16:36:27;;;;;;;23.47;12.87;;;;;;;16.53;nan;102586.13;4771644;30;20454;-95
2022/01/17 16:43:09;;;;;;;50.17;25.07;;;;;;;16.27;nan;102580.16;4788540;29;20454;-94
2022/01/17 16:45:40;;;;;;;73.20;28.63;;;;;;;16.06;nan;102557.94;4761230;30;20502;-95
2022/01/17 16:48:32;;;;;;;51.83;12.10;;;;;;;16.05;nan;102576.38;4775266;30;20520;-94
2022/01/17 16:51:03;;;;;;;29.73;13.33;;;;;;;15.94;nan;102575.97;4761555;30;20468;-93
2022/01/17 16:53:34;;;;;;;64.27;33.43;;;;;;;15.79;nan;102587.75;4756355;29;20967;-91
2022/01/17 16:56:15;;;;;;;54.57;28.43;;;;;;;15.62;nan;102582.53;4847092;29;20467;-91
2022/01/17 16:58:58;;;;;;;43.40;26.10;;;;;;;15.36;nan;102571.84;4810323;29;20472;-92
2022/01/17 17:01:49;;;;;;;14.63;9.13;;;;;;;15.16;nan;102572.28;4807619;29;20457;-92
2022/01/17 17:04:38;;;;;;;19.63;9.77;;;;;;;15.10;nan;102584.00;4844535;29;20453;-92
2022/01/17 17:07:07;;;;;;;15.93;8.00;;;;;;;14.83;nan;102559.66;4844279;29;20476;-91
2022/01/17 17:09:35;;;;;;;11.70;6.20;;;;;;;14.78;nan;102578.63;4815531;29;20468;-94
2022/01/17 17:12:04;;;;;;;9.30;5.90;;;;;;;14.68;nan;102572.44;4816226;29;20825;-90
2022/01/17 17:14:37;;;;;;;10.23;5.57;;;;;;;14.51;nan;102572.47;4816507;29;20464;-91
2022/01/17 17:17:05;;;;;;;10.17;5.80;;;;;;;14.43;nan;102572.47;4833379;29;20968;-87
2022/01/17 17:19:33;;;;;;;9.20;5.00;;;;;;;14.36;nan;102568.69;4853624;29;20452;-87
2022/01/17 17:22:01;;;;;;;10.07;3.90;;;;;;;14.29;nan;102567.66;4815342;29;20456;-87
2022/01/17 17:24:29;;;;;;;13.93;3.80;;;;;;;14.18;nan;102574.38;4825971;29;20536;-88
2022/01/17 17:26:58;;;;;;;6.37;2.67;;;;;;;14.05;nan;102571.28;4830607;29;20480;-89
2022/01/17 17:29:28;;;;;;;7.73;2.93;;;;;;;13.99;nan;102576.63;4828171;29;20457;-92
2022/01/17 17:31:56;;;;;;;12.40;3.67;;;;;;;13.88;nan;102571.44;4830353;29;20860;-88
2022/01/17 17:34:24;;;;;;;7.80;3.23;;;;;;;13.79;nan;102571.47;4827699;29;20464;-87
2022/01/17 17:36:55;;;;;;;9.17;3.23;;;;;;;13.68;nan;102569.03;4860742;29;20528;-87
2022/01/17 17:39:26;;;;;;;8.87;3.57;;;;;;;13.58;nan;102562.84;4853343;29;21055;-87
2022/01/17 17:41:54;;;;;;;20.13;4.60;;;;;;;13.45;nan;102552.34;4834336;29;20468;-87
2022/01/17 17:44:22;;;;;;;10.70;4.20;;;;;;;13.31;nan;102554.88;4830774;29;20451;-87
2022/01/17 17:46:51;;;;;;;14.97;4.83;;;;;;;13.24;nan;102557.44;4861047;29;20496;-87
2022/01/17 17:49:22;;;;;;;14.03;4.63;;;;;;;13.09;nan;102546.19;4830344;29;20467;-87
2022/01/17 17:51:55;;;;;;;9.20;3.73;;;;;;;13.02;nan;102555.25;4842179;29;20457;-87
2022/01/17 17:54:24;;;;;;;8.90;3.93;;;;;;;12.90;nan;102556.56;4854874;29;20959;-87
2022/01/17 17:56:53;;;;;;;13.00;4.40;;;;;;;12.85;nan;102567.19;4844821;29;20468;-88
2022/01/17 17:59:22;;;;;;;7.80;3.70;;;;;;;12.70;nan;102550.50;4829827;29;20496;-88
2022/01/17 18:02:06;;;;;;;10.47;4.53;;;;;;;12.65;nan;102561.09;4860551;29;20835;-90
2022/01/17 18:04:50;;;;;;;12.43;4.27;;;;;;;12.56;nan;102567.53;4771905;29;20515;-91
2022/01/17 18:07:21;;;;;;;10.00;3.70;;;;;;;12.43;nan;102563.34;4765239;30;20503;-91
2022/01/17 18:09:56;;;;;;;10.00;3.23;;;;;;;12.34;nan;102555.22;4768075;30;20453;-91
2022/01/17 18:12:25;;;;;;;9.23;3.30;;;;;;;12.19;nan;102554.94;4752352;30;20990;-91
2022/01/17 18:14:55;;;;;;;11.40;3.97;;;;;;;12.13;nan;102558.31;4755112;30;20887;-90
2022/01/17 18:17:46;;;;;;;7.53;4.30;;;;;;;12.06;nan;102565.47;4752702;30;20569;-90
2022/01/17 18:20:23;;;;;;;12.57;5.13;;;;;;;11.96;nan;102572.91;4774639;30;20493;-89
2022/01/17 18:22:54;;;;;;;9.87;4.20;;;;;;;11.91;nan;102576.16;4782624;29;20460;-90
2022/01/17 18:25:27;;;;;;;18.30;4.60;;;;;;;11.83;nan;102567.84;4843711;29;20467;-90
2022/01/17 18:28:19;;;;;;;10.23;4.63;;;;;;;11.72;nan;102566.19;4861670;29;20486;-89
2022/01/17 18:30:57;;;;;;;12.63;4.90;;;;;;;11.76;nan;102572.22;4757713;30;20482;-90
2022/01/17 18:33:31;;;;;;;13.97;4.70;;;;;;;11.63;nan;102567.13;4757665;30;20833;-90
2022/01/17 18:36:07;;;;;;;11.83;5.20;;;;;;;11.57;nan;102567.72;4758938;30;21010;-90
2022/01/17 18:38:36;;;;;;;11.30;3.93;;;;;;;11.40;nan;102554.88;4771827;30;20486;-89
2022/01/17 18:41:06;;;;;;;12.47;4.90;;;;;;;11.43;nan;102565.53;4756733;30;20463;-89
2022/01/17 18:43:35;;;;;;;11.90;4.83;;;;;;;11.35;nan;102565.47;4771927;30;20464;-89
2022/01/17 18:46:04;;;;;;;11.93;4.80;;;;;;;11.35;nan;102576.41;4770683;29;20487;-88
2022/01/17 18:48:33;;;;;;;12.00;5.40;;;;;;;11.29;nan;102574.28;4770855;30;20459;-93
2022/01/17 18:51:40;;;;;;;11.23;5.13;;;;;;;11.26;nan;102580.91;4757166;30;20462;-91
2022/01/17 18:54:19;;;;;;;8.83;4.73;;;;;;;11.16;nan;102580.09;4787304;30;20978;-91
2022/01/17 18:57:21;;;;;;;14.67;4.90;;;;;;;11.08;nan;102578.13;4758361;30;20463;-91
2022/01/17 19:00:02;;;;;;;13.83;7.10;;;;;;;11.02;nan;102580.59;4771993;30;20479;-92
2022/01/17 19:02:33;;;;;;;16.00;5.70;;;;;;;10.90;nan;102574.50;4773267;30;20456;-91
2022/01/17 19:05:03;;;;;;;19.60;9.60;;;;;;;10.86;nan;102580.41;4757139;30;20512;-92
2022/01/17 19:53:27;;;;;;;29.50;7.53;;;;;;;9.95;100.00;102625.59;4782643;29;20529;-91
2022/01/17 23:10:08;;;;;;;24.33;12.93;;;;;;;7.55;98.36;102596.13;4774334;29;21014;-94
2022/01/17 23:36:51;;;;;;;23.43;9.77;;;;;;;7.56;98.20;102625.94;4853782;29;20539;-94
